Kanata, Canada
Current Conditions -  °F | °C
As of 8:00 PM on Friday 28 Nov 2014 (Local Time) from CYOW Reporting Station
Broken Clouds Broken Clouds  
Wind Chill: 16°   Ceiling: 14000
Heat Index: 16°   Visibility: 15mi
Dew Point: 10°   Wind: 2mph
Humidity: 79%   Direction: 220°SW
Pressure: 30.18"   Gusts: NA
Location:  45.3°N, 75.91°W
Report Text: CYOW 290100Z 22002KT 15SM BKN140 M09/M12 A3018 RMK AC6 SLP228
Loading
Personal Weather Stations






























Interactive Weather Map New forecast layout! Learn more

10-Day Weather Forecast

Advertisements
Track Severe Weather on mobile